METAR és
SPECI
METAR LHBP 040630Z 07005KT 040V130 CAVOK 25/11 Q1025 NOSIG=
METAR LHBP 040600Z VRB02KT CAVOK 25/12 Q1025 NOSIG=
METAR LHBP 040530Z VRB02KT CAVOK 23/11 Q1026 NOSIG=
METAR LHBP 040500Z 31005KT 280V340 CAVOK 21/12 Q1025 NOSIG=
METAR LHBP 040430Z VRB03KT CAVOK 19/12 Q1025 NOSIG=
METAR LHBP 040400Z VRB02KT CAVOK 15/11 Q1025 NOSIG=
TAF
TAF LHBP 040500Z 0406/0506 33005KT CAVOK BECMG 0407/0409 07007KT BECMG 0414/0416 03007KT BECMG 0418/0420 VRB02KT=
GAMET
FAHU41 LHBM 040500
LHCC GAMET VALID 040600/041200 LHBP-
LHCC BUDAPEST FIR BLW FL100
SECN I
HAZARDOUS WX NIL=
OMSZ: 2015. július 4. 06:38 (04:38  UTC)
[FAHU41]
AIRMET
Nincs érvényes távirat! 
WAHU41 LHBM 231400
LHCC AIRMET 01 VALID 231400/231600 LHBP-
LHCC BUDAPEST FIR MOD TURB OBS OVER BUDAPEST TMA BTN
4000/9500 FT AMSL AT 1342Z BY A330 WKN STNR=
OMSZ: 2015. június 23. 16:12 (14:12  UTC)
[WAHU41]
SIGMET
Nincs érvényes távirat! 
WSHU31 LHBM 292030
LHCC SIGMET 03 VALID 292030/292130 LHBP-
LHCC BUDAPEST FIR EMBD TS OBS E OF E02020 AND S OF N4730 TOP
FL270 MOV E WKN=
OMSZ: 2015. június 29. 22:26 (20:26  UTC)
[WSHU31]
SIGMET
Vulkáni hamufelhő
Nincs érvényes távirat! 
WVHU31 LHBM 271515 CCA
LHCC SIGMET 03 VALID 271515/271800 LHBP-
LHCC BUDAPEST FIR EXERCISE VOLCEX12/01
CNL VA SIGMET 02 271200/271800
EXERCISE EXERCISE EXERCISE VOLCEX12/01=
OMSZ: 2015. április 14. 15:15 (13:15  UTC)
[WVHU31]